sensor_id;sensor_type;location;lat;lon;timestamp;temperature;humidity
21744;DHT22;11034;48.556;9.342;2023-06-22T00:00:33;19.80;99.90
21744;DHT22;11034;48.556;9.342;2023-06-22T00:03:01;19.70;99.90
21744;DHT22;11034;48.556;9.342;2023-06-22T00:05:30;19.70;99.90
21744;DHT22;11034;48.556;9.342;2023-06-22T00:08:02;19.70;99.90
21744;DHT22;11034;48.556;9.342;2023-06-22T00:10:34;19.60;99.90
21744;DHT22;11034;48.556;9.342;2023-06-22T00:13:02;19.60;99.90
21744;DHT22;11034;48.556;9.342;2023-06-22T00:15:30;19.60;99.90
21744;DHT22;11034;48.556;9.342;2023-06-22T00:17:59;19.60;99.90
21744;DHT22;11034;48.556;9.342;2023-06-22T00:20:27;19.50;99.90
21744;DHT22;11034;48.556;9.342;2023-06-22T00:22:59;19.50;99.90
21744;DHT22;11034;48.556;9.342;2023-06-22T00:25:27;19.50;99.90
21744;DHT22;11034;48.556;9.342;2023-06-22T00:27:55;19.50;99.90
21744;DHT22;11034;48.556;9.342;2023-06-22T00:30:23;19.50;99.90
21744;DHT22;11034;48.556;9.342;2023-06-22T00:32:51;19.50;99.90
21744;DHT22;11034;48.556;9.342;2023-06-22T00:35:20;19.50;99.90
21744;DHT22;11034;48.556;9.342;2023-06-22T00:37:48;19.50;99.90
21744;DHT22;11034;48.556;9.342;2023-06-22T00:40:19;19.50;99.90
21744;DHT22;11034;48.556;9.342;2023-06-22T00:42:48;19.40;99.90
21744;DHT22;11034;48.556;9.342;2023-06-22T00:45:16;19.40;99.90
21744;DHT22;11034;48.556;9.342;2023-06-22T00:47:44;19.40;99.90
21744;DHT22;11034;48.556;9.342;2023-06-22T00:50:18;19.30;99.90
21744;DHT22;11034;48.556;9.342;2023-06-22T00:52:50;19.40;99.90
21744;DHT22;11034;48.556;9.342;2023-06-22T00:55:20;19.40;99.90
21744;DHT22;11034;48.556;9.342;2023-06-22T00:57:49;19.30;99.90
21744;DHT22;11034;48.556;9.342;2023-06-22T01:00:18;19.30;99.90
21744;DHT22;11034;48.556;9.342;2023-06-22T01:02:47;19.20;99.90
21744;DHT22;11034;48.556;9.342;2023-06-22T01:05:19;19.10;99.90
21744;DHT22;11034;48.556;9.342;2023-06-22T01:07:57;19.10;99.90
21744;DHT22;11034;48.556;9.342;2023-06-22T01:10:35;19.00;99.90
21744;DHT22;11034;48.556;9.342;2023-06-22T01:13:11;19.00;99.90
21744;DHT22;11034;48.556;9.342;2023-06-22T01:15:45;19.00;99.90
21744;DHT22;11034;48.556;9.342;2023-06-22T01:18:17;18.80;99.90
21744;DHT22;11034;48.556;9.342;2023-06-22T01:20:46;18.80;99.90
21744;DHT22;11034;48.556;9.342;2023-06-22T01:23:27;18.80;99.90
21744;DHT22;11034;48.556;9.342;2023-06-22T01:26:04;18.80;99.90
21744;DHT22;11034;48.556;9.342;2023-06-22T01:28:45;18.70;99.90
21744;DHT22;11034;48.556;9.342;2023-06-22T01:31:16;18.70;99.90
21744;DHT22;11034;48.556;9.342;2023-06-22T01:33:48;18.60;99.90
21744;DHT22;11034;48.556;9.342;2023-06-22T01:36:17;18.60;99.90
21744;DHT22;11034;48.556;9.342;2023-06-22T01:38:47;18.60;99.90
21744;DHT22;11034;48.556;9.342;2023-06-22T01:41:16;18.50;99.90
21744;DHT22;11034;48.556;9.342;2023-06-22T01:43:47;18.60;99.90
21744;DHT22;11034;48.556;9.342;2023-06-22T01:46:15;18.60;99.90
21744;DHT22;11034;48.556;9.342;2023-06-22T01:48:46;18.50;99.90
21744;DHT22;11034;48.556;9.342;2023-06-22T01:51:15;18.40;99.90
21744;DHT22;11034;48.556;9.342;2023-06-22T01:53:43;18.50;99.90
21744;DHT22;11034;48.556;9.342;2023-06-22T01:56:11;18.50;99.90
21744;DHT22;11034;48.556;9.342;2023-06-22T01:58:50;18.50;99.90
21744;DHT22;11034;48.556;9.342;2023-06-22T02:01:23;18.50;99.90
21744;DHT22;11034;48.556;9.342;2023-06-22T02:04:02;18.50;99.90
21744;DHT22;11034;48.556;9.342;2023-06-22T02:06:34;18.50;99.90
21744;DHT22;11034;48.556;9.342;2023-06-22T02:09:08;18.50;99.90
21744;DHT22;11034;48.556;9.342;2023-06-22T02:11:39;18.40;99.90
21744;DHT22;11034;48.556;9.342;2023-06-22T02:14:11;18.40;99.90
21744;DHT22;11034;48.556;9.342;2023-06-22T02:16:40;18.40;99.90
21744;DHT22;11034;48.556;9.342;2023-06-22T02:19:10;18.40;99.90
21744;DHT22;11034;48.556;9.342;2023-06-22T02:21:38;18.40;99.90
21744;DHT22;11034;48.556;9.342;2023-06-22T02:24:06;18.40;99.90
21744;DHT22;11034;48.556;9.342;2023-06-22T02:26:34;18.40;99.90
21744;DHT22;11034;48.556;9.342;2023-06-22T02:29:02;18.50;99.90
21744;DHT22;11034;48.556;9.342;2023-06-22T02:31:31;18.50;99.90
21744;DHT22;11034;48.556;9.342;2023-06-22T02:34:00;18.30;99.90
21744;DHT22;11034;48.556;9.342;2023-06-22T02:36:28;18.30;99.90
21744;DHT22;11034;48.556;9.342;2023-06-22T02:38:57;18.20;99.90
21744;DHT22;11034;48.556;9.342;2023-06-22T02:41:27;18.10;99.90
21744;DHT22;11034;48.556;9.342;2023-06-22T02:43:56;18.10;99.90
21744;DHT22;11034;48.556;9.342;2023-06-22T02:46:24;18.20;99.90
21744;DHT22;11034;48.556;9.342;2023-06-22T02:48:53;18.20;99.90
21744;DHT22;11034;48.556;9.342;2023-06-22T02:51:21;18.20;99.90
21744;DHT22;11034;48.556;9.342;2023-06-22T02:53:49;18.40;99.90
21744;DHT22;11034;48.556;9.342;2023-06-22T02:56:18;18.40;99.90
21744;DHT22;11034;48.556;9.342;2023-06-22T02:58:51;18.40;99.90
21744;DHT22;11034;48.556;9.342;2023-06-22T03:01:19;18.40;99.90
21744;DHT22;11034;48.556;9.342;2023-06-22T03:03:52;18.30;99.90
21744;DHT22;11034;48.556;9.342;2023-06-22T03:06:21;18.40;99.90
21744;DHT22;11034;48.556;9.342;2023-06-22T03:08:50;18.30;99.90
21744;DHT22;11034;48.556;9.342;2023-06-22T03:11:18;18.30;99.90
21744;DHT22;11034;48.556;9.342;2023-06-22T03:13:46;18.30;99.90
21744;DHT22;11034;48.556;9.342;2023-06-22T03:16:14;18.30;99.90
21744;DHT22;11034;48.556;9.342;2023-06-22T03:18:42;18.20;99.90
21744;DHT22;11034;48.556;9.342;2023-06-22T03:21:11;18.30;99.90
21744;DHT22;11034;48.556;9.342;2023-06-22T03:23:42;18.30;99.90
21744;DHT22;11034;48.556;9.342;2023-06-22T03:26:10;18.20;99.90
21744;DHT22;11034;48.556;9.342;2023-06-22T03:28:38;18.20;99.90
21744;DHT22;11034;48.556;9.342;2023-06-22T03:31:06;18.20;99.90
21744;DHT22;11034;48.556;9.342;2023-06-22T03:33:34;18.20;99.90
21744;DHT22;11034;48.556;9.342;2023-06-22T03:36:03;18.20;99.90
21744;DHT22;11034;48.556;9.342;2023-06-22T03:38:32;18.20;99.90
21744;DHT22;11034;48.556;9.342;2023-06-22T03:41:00;18.30;99.90
21744;DHT22;11034;48.556;9.342;2023-06-22T03:43:28;18.30;99.90
21744;DHT22;11034;48.556;9.342;2023-06-22T03:45:57;18.30;99.90
21744;DHT22;11034;48.556;9.342;2023-06-22T03:48:25;18.40;99.90
21744;DHT22;11034;48.556;9.342;2023-06-22T03:50:53;18.30;99.90
21744;DHT22;11034;48.556;9.342;2023-06-22T03:53:21;18.40;99.90
21744;DHT22;11034;48.556;9.342;2023-06-22T03:55:51;18.50;99.90
21744;DHT22;11034;48.556;9.342;2023-06-22T03:58:20;18.60;99.90
21744;DHT22;11034;48.556;9.342;2023-06-22T04:00:49;18.70;99.90
21744;DHT22;11034;48.556;9.342;2023-06-22T04:03:18;18.90;99.90
21744;DHT22;11034;48.556;9.342;2023-06-22T04:05:47;19.00;99.90
21744;DHT22;11034;48.556;9.342;2023-06-22T04:08:15;19.10;99.90
21744;DHT22;11034;48.556;9.342;2023-06-22T04:10:43;19.20;99.90
21744;DHT22;11034;48.556;9.342;2023-06-22T04:13:13;19.50;99.90
21744;DHT22;11034;48.556;9.342;2023-06-22T04:15:41;19.60;99.90
21744;DHT22;11034;48.556;9.342;2023-06-22T04:18:09;20.00;99.90
21744;DHT22;11034;48.556;9.342;2023-06-22T04:20:37;20.50;99.90
21744;DHT22;11034;48.556;9.342;2023-06-22T04:23:05;20.60;99.90
21744;DHT22;11034;48.556;9.342;2023-06-22T04:25:33;20.80;99.90
21744;DHT22;11034;48.556;9.342;2023-06-22T04:28:02;21.40;99.90
21744;DHT22;11034;48.556;9.342;2023-06-22T04:30:33;21.80;99.90
21744;DHT22;11034;48.556;9.342;2023-06-22T04:33:01;22.00;99.90
21744;DHT22;11034;48.556;9.342;2023-06-22T04:35:29;22.20;99.90
21744;DHT22;11034;48.556;9.342;2023-06-22T04:37:58;22.30;99.90
21744;DHT22;11034;48.556;9.342;2023-06-22T04:40:26;22.40;99.90
21744;DHT22;11034;48.556;9.342;2023-06-22T04:42:55;22.50;99.90
21744;DHT22;11034;48.556;9.342;2023-06-22T04:45:23;23.00;99.90
21744;DHT22;11034;48.556;9.342;2023-06-22T04:47:52;23.00;99.90
21744;DHT22;11034;48.556;9.342;2023-06-22T04:50:20;23.40;99.90
21744;DHT22;11034;48.556;9.342;2023-06-22T04:52:50;23.70;99.90
21744;DHT22;11034;48.556;9.342;2023-06-22T04:55:20;24.30;99.90
21744;DHT22;11034;48.556;9.342;2023-06-22T04:57:48;24.30;99.90
21744;DHT22;11034;48.556;9.342;2023-06-22T05:00:17;24.10;99.90
21744;DHT22;11034;48.556;9.342;2023-06-22T05:02:49;25.00;99.90
21744;DHT22;11034;48.556;9.342;2023-06-22T05:05:24;25.20;99.90
21744;DHT22;11034;48.556;9.342;2023-06-22T05:07:52;26.00;99.90
21744;DHT22;11034;48.556;9.342;2023-06-22T05:10:21;26.40;99.90
21744;DHT22;11034;48.556;9.342;2023-06-22T05:12:49;26.70;99.90
21744;DHT22;11034;48.556;9.342;2023-06-22T05:15:17;26.10;99.90
21744;DHT22;11034;48.556;9.342;2023-06-22T05:17:46;25.50;99.90
21744;DHT22;11034;48.556;9.342;2023-06-22T05:20:14;25.80;99.90
21744;DHT22;11034;48.556;9.342;2023-06-22T05:22:46;26.20;99.90
21744;DHT22;11034;48.556;9.342;2023-06-22T05:25:14;26.80;99.90
21744;DHT22;11034;48.556;9.342;2023-06-22T05:27:42;27.20;99.90
21744;DHT22;11034;48.556;9.342;2023-06-22T05:30:11;26.70;99.90
21744;DHT22;11034;48.556;9.342;2023-06-22T05:32:41;27.70;99.90
21744;DHT22;11034;48.556;9.342;2023-06-22T05:35:11;28.30;99.90
21744;DHT22;11034;48.556;9.342;2023-06-22T05:37:39;28.30;99.90
21744;DHT22;11034;48.556;9.342;2023-06-22T05:40:09;28.30;99.90
21744;DHT22;11034;48.556;9.342;2023-06-22T05:42:38;28.00;99.90
21744;DHT22;11034;48.556;9.342;2023-06-22T05:45:07;28.30;99.90
21744;DHT22;11034;48.556;9.342;2023-06-22T05:47:36;28.80;99.90
21744;DHT22;11034;48.556;9.342;2023-06-22T05:50:05;28.80;99.90
21744;DHT22;11034;48.556;9.342;2023-06-22T05:52:38;29.30;99.90
21744;DHT22;11034;48.556;9.342;2023-06-22T05:55:08;29.20;99.90
21744;DHT22;11034;48.556;9.342;2023-06-22T05:57:37;29.40;99.90
21744;DHT22;11034;48.556;9.342;2023-06-22T06:00:06;29.30;99.90
21744;DHT22;11034;48.556;9.342;2023-06-22T06:02:37;29.10;99.90
21744;DHT22;11034;48.556;9.342;2023-06-22T06:05:11;29.10;99.90
21744;DHT22;11034;48.556;9.342;2023-06-22T06:07:40;29.40;99.90
21744;DHT22;11034;48.556;9.342;2023-06-22T06:10:10;29.60;99.90
21744;DHT22;11034;48.556;9.342;2023-06-22T06:12:38;29.40;99.90
21744;DHT22;11034;48.556;9.342;2023-06-22T06:15:07;29.80;99.90
21744;DHT22;11034;48.556;9.342;2023-06-22T06:17:45;30.10;99.90
21744;DHT22;11034;48.556;9.342;2023-06-22T06:20:13;30.40;99.90
21744;DHT22;11034;48.556;9.342;2023-06-22T06:22:41;31.20;99.90
21744;DHT22;11034;48.556;9.342;2023-06-22T06:25:11;30.90;99.90
21744;DHT22;11034;48.556;9.342;2023-06-22T06:27:43;31.40;99.90
21744;DHT22;11034;48.556;9.342;2023-06-22T06:30:12;32.20;99.90
21744;DHT22;11034;48.556;9.342;2023-06-22T06:32:41;32.30;99.90
21744;DHT22;11034;48.556;9.342;2023-06-22T06:35:14;32.40;99.90
21744;DHT22;11034;48.556;9.342;2023-06-22T06:37:44;32.50;99.90
21744;DHT22;11034;48.556;9.342;2023-06-22T06:40:15;32.50;99.90
21744;DHT22;11034;48.556;9.342;2023-06-22T06:42:45;32.70;99.90
21744;DHT22;11034;48.556;9.342;2023-06-22T06:45:17;32.70;99.90
21744;DHT22;11034;48.556;9.342;2023-06-22T06:47:46;32.90;99.90
21744;DHT22;11034;48.556;9.342;2023-06-22T06:50:15;33.40;99.90
21744;DHT22;11034;48.556;9.342;2023-06-22T06:52:43;33.20;99.90
21744;DHT22;11034;48.556;9.342;2023-06-22T06:55:11;32.80;99.90
21744;DHT22;11034;48.556;9.342;2023-06-22T06:57:42;32.00;99.90
21744;DHT22;11034;48.556;9.342;2023-06-22T07:00:12;31.80;99.90
21744;DHT22;11034;48.556;9.342;2023-06-22T07:02:53;32.00;99.90
21744;DHT22;11034;48.556;9.342;2023-06-22T07:05:21;32.10;99.90
21744;DHT22;11034;48.556;9.342;2023-06-22T07:07:49;32.00;99.90
21744;DHT22;11034;48.556;9.342;2023-06-22T07:10:17;31.90;99.90
21744;DHT22;11034;48.556;9.342;2023-06-22T07:12:46;32.30;99.90
21744;DHT22;11034;48.556;9.342;2023-06-22T07:15:14;32.20;99.90
21744;DHT22;11034;48.556;9.342;2023-06-22T07:17:43;31.80;99.90
21744;DHT22;11034;48.556;9.342;2023-06-22T07:20:11;31.10;99.90
21744;DHT22;11034;48.556;9.342;2023-06-22T07:22:41;31.80;99.90
21744;DHT22;11034;48.556;9.342;2023-06-22T07:25:10;31.50;99.90
21744;DHT22;11034;48.556;9.342;2023-06-22T07:27:46;31.30;99.90
21744;DHT22;11034;48.556;9.342;2023-06-22T07:30:15;31.20;99.90
21744;DHT22;11034;48.556;9.342;2023-06-22T07:32:43;31.50;99.90
21744;DHT22;11034;48.556;9.342;2023-06-22T07:35:11;31.80;99.90
21744;DHT22;11034;48.556;9.342;2023-06-22T07:37:39;32.10;99.90
21744;DHT22;11034;48.556;9.342;2023-06-22T07:40:09;32.40;99.90
21744;DHT22;11034;48.556;9.342;2023-06-22T07:42:37;32.20;99.90
21744;DHT22;11034;48.556;9.342;2023-06-22T07:45:07;31.40;99.90
21744;DHT22;11034;48.556;9.342;2023-06-22T07:47:36;31.10;99.90
21744;DHT22;11034;48.556;9.342;2023-06-22T07:50:05;31.10;99.90
21744;DHT22;11034;48.556;9.342;2023-06-22T07:52:33;31.00;99.90
21744;DHT22;11034;48.556;9.342;2023-06-22T07:55:02;30.60;99.90
21744;DHT22;11034;48.556;9.342;2023-06-22T07:57:30;29.90;99.90
21744;DHT22;11034;48.556;9.342;2023-06-22T08:00:01;30.10;99.90
21744;DHT22;11034;48.556;9.342;2023-06-22T08:02:36;30.80;99.90
21744;DHT22;11034;48.556;9.342;2023-06-22T08:05:05;30.30;99.90
21744;DHT22;11034;48.556;9.342;2023-06-22T08:07:47;30.30;99.90
21744;DHT22;11034;48.556;9.342;2023-06-22T08:10:15;30.90;99.90
21744;DHT22;11034;48.556;9.342;2023-06-22T08:12:49;31.70;99.90
21744;DHT22;11034;48.556;9.342;2023-06-22T08:15:18;31.00;99.90
21744;DHT22;11034;48.556;9.342;2023-06-22T08:17:48;30.40;99.90
21744;DHT22;11034;48.556;9.342;2023-06-22T08:20:16;29.90;99.90
21744;DHT22;11034;48.556;9.342;2023-06-22T08:22:44;29.80;99.90
21744;DHT22;11034;48.556;9.342;2023-06-22T08:25:12;31.10;99.90
21744;DHT22;11034;48.556;9.342;2023-06-22T08:27:45;31.60;99.90
21744;DHT22;11034;48.556;9.342;2023-06-22T08:30:13;31.30;99.90
21744;DHT22;11034;48.556;9.342;2023-06-22T08:32:42;31.80;99.90
21744;DHT22;11034;48.556;9.342;2023-06-22T08:35:11;32.00;99.90
21744;DHT22;11034;48.556;9.342;2023-06-22T08:37:39;31.40;99.90
21744;DHT22;11034;48.556;9.342;2023-06-22T08:40:09;31.60;99.90
21744;DHT22;11034;48.556;9.342;2023-06-22T08:42:39;31.50;99.90
21744;DHT22;11034;48.556;9.342;2023-06-22T08:45:09;31.40;99.90
21744;DHT22;11034;48.556;9.342;2023-06-22T08:47:37;31.20;99.90
21744;DHT22;11034;48.556;9.342;2023-06-22T08:50:07;31.00;99.90
21744;DHT22;11034;48.556;9.342;2023-06-22T08:52:37;30.30;99.90
21744;DHT22;11034;48.556;9.342;2023-06-22T08:55:09;30.20;99.90
21744;DHT22;11034;48.556;9.342;2023-06-22T08:57:37;30.10;99.90
21744;DHT22;11034;48.556;9.342;2023-06-22T09:00:07;30.10;99.90
21744;DHT22;11034;48.556;9.342;2023-06-22T09:02:44;29.60;99.90
21744;DHT22;11034;48.556;9.342;2023-06-22T09:05:13;29.60;99.90
21744;DHT22;11034;48.556;9.342;2023-06-22T09:07:43;29.50;99.90
21744;DHT22;11034;48.556;9.342;2023-06-22T09:10:11;29.50;99.90
21744;DHT22;11034;48.556;9.342;2023-06-22T09:12:39;29.60;99.90
21744;DHT22;11034;48.556;9.342;2023-06-22T09:15:08;29.60;99.90
21744;DHT22;11034;48.556;9.342;2023-06-22T09:17:52;29.80;99.90
21744;DHT22;11034;48.556;9.342;2023-06-22T09:20:21;29.70;99.90
21744;DHT22;11034;48.556;9.342;2023-06-22T09:22:51;29.60;99.90
21744;DHT22;11034;48.556;9.342;2023-06-22T09:25:19;29.40;99.90
21744;DHT22;11034;48.556;9.342;2023-06-22T09:27:47;29.50;99.90
21744;DHT22;11034;48.556;9.342;2023-06-22T09:30:15;29.50;99.90
21744;DHT22;11034;48.556;9.342;2023-06-22T09:32:44;29.60;99.90
21744;DHT22;11034;48.556;9.342;2023-06-22T09:35:12;29.70;99.90
21744;DHT22;11034;48.556;9.342;2023-06-22T09:37:40;29.80;99.90
21744;DHT22;11034;48.556;9.342;2023-06-22T09:40:10;30.00;99.90
21744;DHT22;11034;48.556;9.342;2023-06-22T09:42:41;30.20;99.90
21744;DHT22;11034;48.556;9.342;2023-06-22T09:45:10;30.20;99.90
21744;DHT22;11034;48.556;9.342;2023-06-22T09:47:38;30.40;99.90
21744;DHT22;11034;48.556;9.342;2023-06-22T09:50:06;30.30;99.90
21744;DHT22;11034;48.556;9.342;2023-06-22T09:52:35;30.40;99.90
21744;DHT22;11034;48.556;9.342;2023-06-22T09:55:06;30.60;99.90
21744;DHT22;11034;48.556;9.342;2023-06-22T09:57:36;30.60;99.90
21744;DHT22;11034;48.556;9.342;2023-06-22T10:00:05;30.50;99.90
21744;DHT22;11034;48.556;9.342;2023-06-22T10:02:38;30.60;99.90
21744;DHT22;11034;48.556;9.342;2023-06-22T10:05:07;30.60;99.90
21744;DHT22;11034;48.556;9.342;2023-06-22T10:07:36;30.60;99.90
21744;DHT22;11034;48.556;9.342;2023-06-22T10:10:07;30.60;99.90
21744;DHT22;11034;48.556;9.342;2023-06-22T10:12:40;30.80;99.90
21744;DHT22;11034;48.556;9.342;2023-06-22T10:15:09;30.90;99.90
21744;DHT22;11034;48.556;9.342;2023-06-22T10:17:38;31.20;99.90
21744;DHT22;11034;48.556;9.342;2023-06-22T10:20:07;31.20;99.90
21744;DHT22;11034;48.556;9.342;2023-06-22T10:22:39;31.00;99.90
21744;DHT22;11034;48.556;9.342;2023-06-22T10:25:08;30.90;99.90
21744;DHT22;11034;48.556;9.342;2023-06-22T10:27:38;31.00;99.90
21744;DHT22;11034;48.556;9.342;2023-06-22T10:30:08;31.30;99.90
21744;DHT22;11034;48.556;9.342;2023-06-22T10:32:38;31.10;99.90
21744;DHT22;11034;48.556;9.342;2023-06-22T10:35:06;31.00;99.90
21744;DHT22;11034;48.556;9.342;2023-06-22T10:37:35;30.80;99.90
21744;DHT22;11034;48.556;9.342;2023-06-22T10:40:05;31.20;99.90
21744;DHT22;11034;48.556;9.342;2023-06-22T10:42:34;31.00;99.90
21744;DHT22;11034;48.556;9.342;2023-06-22T10:45:04;31.20;99.90
21744;DHT22;11034;48.556;9.342;2023-06-22T10:47:32;31.50;99.90
21744;DHT22;11034;48.556;9.342;2023-06-22T10:50:01;31.70;99.90
21744;DHT22;11034;48.556;9.342;2023-06-22T10:52:29;31.80;99.90
21744;DHT22;11034;48.556;9.342;2023-06-22T10:54:58;31.90;99.90
21744;DHT22;11034;48.556;9.342;2023-06-22T10:57:26;32.20;99.90
21744;DHT22;11034;48.556;9.342;2023-06-22T10:59:54;32.10;99.90
21744;DHT22;11034;48.556;9.342;2023-06-22T11:02:23;32.30;99.90
21744;DHT22;11034;48.556;9.342;2023-06-22T11:04:52;32.80;99.90
21744;DHT22;11034;48.556;9.342;2023-06-22T11:07:20;33.00;99.90
21744;DHT22;11034;48.556;9.342;2023-06-22T11:09:48;33.10;99.90
21744;DHT22;11034;48.556;9.342;2023-06-22T11:12:16;32.70;99.90
21744;DHT22;11034;48.556;9.342;2023-06-22T11:14:44;33.00;99.90
21744;DHT22;11034;48.556;9.342;2023-06-22T11:17:12;33.10;99.90
21744;DHT22;11034;48.556;9.342;2023-06-22T11:19:41;33.50;99.90
21744;DHT22;11034;48.556;9.342;2023-06-22T11:22:09;33.20;99.90
21744;DHT22;11034;48.556;9.342;2023-06-22T11:24:37;33.50;99.90
21744;DHT22;11034;48.556;9.342;2023-06-22T11:27:06;33.70;99.90
21744;DHT22;11034;48.556;9.342;2023-06-22T11:29:34;33.50;99.90
21744;DHT22;11034;48.556;9.342;2023-06-22T11:32:05;33.50;99.90
21744;DHT22;11034;48.556;9.342;2023-06-22T11:34:36;33.60;99.90
21744;DHT22;11034;48.556;9.342;2023-06-22T11:37:08;33.40;99.90
21744;DHT22;11034;48.556;9.342;2023-06-22T11:39:36;33.30;99.90
21744;DHT22;11034;48.556;9.342;2023-06-22T11:42:13;33.20;99.90
21744;DHT22;11034;48.556;9.342;2023-06-22T11:44:43;33.10;99.90
21744;DHT22;11034;48.556;9.342;2023-06-22T11:47:11;32.80;99.90
21744;DHT22;11034;48.556;9.342;2023-06-22T11:49:39;32.90;99.90
21744;DHT22;11034;48.556;9.342;2023-06-22T11:52:09;32.70;99.90
21744;DHT22;11034;48.556;9.342;2023-06-22T11:54:37;32.90;99.90
21744;DHT22;11034;48.556;9.342;2023-06-22T11:57:05;32.60;99.90
21744;DHT22;11034;48.556;9.342;2023-06-22T11:59:33;32.50;99.90
21744;DHT22;11034;48.556;9.342;2023-06-22T12:02:02;32.50;99.90
21744;DHT22;11034;48.556;9.342;2023-06-22T12:04:31;32.50;99.90
21744;DHT22;11034;48.556;9.342;2023-06-22T12:06:59;32.70;99.90
21744;DHT22;11034;48.556;9.342;2023-06-22T12:09:30;33.00;99.90
21744;DHT22;11034;48.556;9.342;2023-06-22T12:11:58;33.00;99.90
21744;DHT22;11034;48.556;9.342;2023-06-22T12:14:26;32.80;99.90
21744;DHT22;11034;48.556;9.342;2023-06-22T12:16:56;33.20;99.90
21744;DHT22;11034;48.556;9.342;2023-06-22T12:19:24;33.20;99.90
21744;DHT22;11034;48.556;9.342;2023-06-22T12:21:52;33.50;99.90
21744;DHT22;11034;48.556;9.342;2023-06-22T12:24:20;33.50;99.90
21744;DHT22;11034;48.556;9.342;2023-06-22T12:26:50;33.20;99.90
21744;DHT22;11034;48.556;9.342;2023-06-22T12:29:21;32.70;99.90
21744;DHT22;11034;48.556;9.342;2023-06-22T12:31:49;32.50;99.90
21744;DHT22;11034;48.556;9.342;2023-06-22T12:34:17;32.40;99.90
21744;DHT22;11034;48.556;9.342;2023-06-22T12:36:46;32.30;99.90
21744;DHT22;11034;48.556;9.342;2023-06-22T12:39:15;32.30;99.90
21744;DHT22;11034;48.556;9.342;2023-06-22T12:41:43;31.90;99.90
21744;DHT22;11034;48.556;9.342;2023-06-22T12:44:12;31.90;99.90
21744;DHT22;11034;48.556;9.342;2023-06-22T12:46:40;31.80;99.90
21744;DHT22;11034;48.556;9.342;2023-06-22T12:49:08;31.60;99.90
21744;DHT22;11034;48.556;9.342;2023-06-22T12:51:40;31.60;99.90
21744;DHT22;11034;48.556;9.342;2023-06-22T12:54:09;31.60;99.90
21744;DHT22;11034;48.556;9.342;2023-06-22T12:56:38;31.50;99.90
21744;DHT22;11034;48.556;9.342;2023-06-22T12:59:06;31.30;99.90
21744;DHT22;11034;48.556;9.342;2023-06-22T13:01:35;31.20;99.90
21744;DHT22;11034;48.556;9.342;2023-06-22T13:04:04;31.10;99.90
21744;DHT22;11034;48.556;9.342;2023-06-22T13:06:32;31.30;99.90
21744;DHT22;11034;48.556;9.342;2023-06-22T13:09:00;31.60;99.90
21744;DHT22;11034;48.556;9.342;2023-06-22T13:11:31;31.60;99.90
21744;DHT22;11034;48.556;9.342;2023-06-22T13:13:59;31.80;99.90
21744;DHT22;11034;48.556;9.342;2023-06-22T13:16:29;32.20;99.90
21744;DHT22;11034;48.556;9.342;2023-06-22T13:18:58;32.50;99.90
21744;DHT22;11034;48.556;9.342;2023-06-22T13:21:26;32.60;99.90
21744;DHT22;11034;48.556;9.342;2023-06-22T13:23:54;32.60;99.90
21744;DHT22;11034;48.556;9.342;2023-06-22T13:26:23;32.90;99.90
21744;DHT22;11034;48.556;9.342;2023-06-22T13:28:51;33.00;99.90
21744;DHT22;11034;48.556;9.342;2023-06-22T13:31:19;33.10;99.90
21744;DHT22;11034;48.556;9.342;2023-06-22T13:33:47;33.00;99.90
21744;DHT22;11034;48.556;9.342;2023-06-22T13:36:17;33.10;99.90
21744;DHT22;11034;48.556;9.342;2023-06-22T13:38:45;33.20;99.90
21744;DHT22;11034;48.556;9.342;2023-06-22T13:41:13;33.30;99.90
21744;DHT22;11034;48.556;9.342;2023-06-22T13:43:41;33.30;99.90
21744;DHT22;11034;48.556;9.342;2023-06-22T13:46:09;33.30;99.90
21744;DHT22;11034;48.556;9.342;2023-06-22T13:48:38;33.30;99.90
21744;DHT22;11034;48.556;9.342;2023-06-22T13:51:06;32.90;99.90
21744;DHT22;11034;48.556;9.342;2023-06-22T13:53:35;32.60;99.90
21744;DHT22;11034;48.556;9.342;2023-06-22T13:56:04;32.50;99.90
21744;DHT22;11034;48.556;9.342;2023-06-22T13:58:32;32.50;99.90
21744;DHT22;11034;48.556;9.342;2023-06-22T14:01:00;32.40;99.90
21744;DHT22;11034;48.556;9.342;2023-06-22T14:03:28;32.30;99.90
21744;DHT22;11034;48.556;9.342;2023-06-22T14:05:56;32.30;99.90
21744;DHT22;11034;48.556;9.342;2023-06-22T14:08:25;32.30;99.90
21744;DHT22;11034;48.556;9.342;2023-06-22T14:10:57;32.30;99.90
21744;DHT22;11034;48.556;9.342;2023-06-22T14:13:25;32.20;99.90
21744;DHT22;11034;48.556;9.342;2023-06-22T14:15:54;32.20;99.90
21744;DHT22;11034;48.556;9.342;2023-06-22T14:18:23;32.00;99.90
21744;DHT22;11034;48.556;9.342;2023-06-22T14:20:51;31.90;99.90
21744;DHT22;11034;48.556;9.342;2023-06-22T14:23:19;31.40;99.90
21744;DHT22;11034;48.556;9.342;2023-06-22T14:25:47;31.30;99.90
21744;DHT22;11034;48.556;9.342;2023-06-22T14:28:16;31.40;99.90
21744;DHT22;11034;48.556;9.342;2023-06-22T14:30:45;31.50;99.90
21744;DHT22;11034;48.556;9.342;2023-06-22T14:33:13;32.00;99.90
21744;DHT22;11034;48.556;9.342;2023-06-22T14:35:41;32.30;99.90
21744;DHT22;11034;48.556;9.342;2023-06-22T14:38:09;32.70;99.90
21744;DHT22;11034;48.556;9.342;2023-06-22T14:40:37;32.60;99.90
21744;DHT22;11034;48.556;9.342;2023-06-22T14:43:27;32.80;99.90
21744;DHT22;11034;48.556;9.342;2023-06-22T14:45:55;32.70;99.90
21744;DHT22;11034;48.556;9.342;2023-06-22T14:48:23;32.70;99.90
21744;DHT22;11034;48.556;9.342;2023-06-22T14:50:51;32.30;99.90
21744;DHT22;11034;48.556;9.342;2023-06-22T14:53:20;32.20;99.90
21744;DHT22;11034;48.556;9.342;2023-06-22T14:55:48;32.20;99.90
21744;DHT22;11034;48.556;9.342;2023-06-22T14:58:16;32.50;99.90
21744;DHT22;11034;48.556;9.342;2023-06-22T15:00:46;32.50;99.90
21744;DHT22;11034;48.556;9.342;2023-06-22T15:03:14;32.50;99.90
21744;DHT22;11034;48.556;9.342;2023-06-22T15:05:48;32.70;99.90
21744;DHT22;11034;48.556;9.342;2023-06-22T15:08:16;32.60;99.90
21744;DHT22;11034;48.556;9.342;2023-06-22T15:10:45;32.30;99.90
21744;DHT22;11034;48.556;9.342;2023-06-22T15:13:13;32.20;99.90
21744;DHT22;11034;48.556;9.342;2023-06-22T15:15:41;32.00;99.90
21744;DHT22;11034;48.556;9.342;2023-06-22T15:18:10;32.10;99.90
21744;DHT22;11034;48.556;9.342;2023-06-22T15:20:38;32.30;99.90
21744;DHT22;11034;48.556;9.342;2023-06-22T15:23:06;32.40;99.90
21744;DHT22;11034;48.556;9.342;2023-06-22T15:25:35;32.50;99.90
21744;DHT22;11034;48.556;9.342;2023-06-22T15:28:05;32.40;99.90
21744;DHT22;11034;48.556;9.342;2023-06-22T15:30:34;32.10;99.90
21744;DHT22;11034;48.556;9.342;2023-06-22T15:33:02;31.80;99.90
21744;DHT22;11034;48.556;9.342;2023-06-22T15:35:31;31.40;99.90
21744;DHT22;11034;48.556;9.342;2023-06-22T15:38:00;31.20;99.90
21744;DHT22;11034;48.556;9.342;2023-06-22T15:40:28;30.90;99.90
21744;DHT22;11034;48.556;9.342;2023-06-22T15:42:57;30.90;99.90